Time;durP1;ratioP1;P1;durP2;ratioP2;P2;SDS_P1;SDS_P2;PMS_P1;PMS_P2;Temp;Humidity;BMP_temperature;BMP_pressure;BME280_temperature;BME280_humidity;BME280_pressure;Samples;Min_cycle;Max_cycle;Signal;HPM_P1;HPM_P2
2021/08/15 12:51:45;;;;;;;7.67;5.80;;;;;;;36.91;27.57;99638.88;5112104;27;21143;31
2021/08/15 12:54:13;;;;;;;8.65;5.53;;;;;;;37.26;25.10;99626.78;4275290;33;35270;-89
2021/08/15 12:56:41;;;;;;;9.50;5.72;;;;;;;37.51;25.75;99617.59;4276756;33;33556;-89
2021/08/15 12:59:08;;;;;;;7.85;5.90;;;;;;;37.57;26.08;99616.03;4264879;33;34485;-89
2021/08/15 13:01:36;;;;;;;8.10;6.10;;;;;;;37.73;24.16;99603.22;4288619;33;34558;-89
2021/08/15 13:04:04;;;;;;;10.38;5.87;;;;;;;37.34;26.12;99602.38;4276807;33;34205;-90
2021/08/15 13:06:34;;;;;;;7.18;6.03;;;;;;;37.30;24.52;99603.72;4276637;33;33155;-90
2021/08/15 13:09:03;;;;;;;8.13;5.70;;;;;;;37.13;25.39;99588.53;4288548;33;34411;-90
2021/08/15 13:11:31;;;;;;;7.60;5.57;;;;;;;37.20;26.31;99595.81;4276814;33;34442;-89
2021/08/15 13:13:58;;;;;;;12.48;5.93;;;;;;;37.15;25.67;99581.06;4287956;33;34362;-88
2021/08/15 13:16:26;;;;;;;9.70;5.75;;;;;;;36.85;25.92;99585.34;4277223;33;33703;-88
2021/08/15 13:18:54;;;;;;;9.77;6.15;;;;;;;36.86;26.46;99570.78;4276607;33;33928;-89
2021/08/15 13:21:22;;;;;;;9.55;6.07;;;;;;;37.18;24.67;99569.88;4276842;33;35138;-88
2021/08/15 13:23:50;;;;;;;8.63;5.70;;;;;;;37.24;26.03;99571.88;4288353;33;33440;-88
2021/08/15 13:26:17;;;;;;;9.13;5.97;;;;;;;36.95;25.85;99568.94;4276429;33;33869;-89
2021/08/15 13:28:45;;;;;;;9.70;6.50;;;;;;;36.97;26.56;99561.47;4288795;33;34070;-94
2021/08/15 13:31:13;;;;;;;10.18;6.62;;;;;;;36.84;25.80;99562.00;4277601;33;35364;-90
2021/08/15 13:33:40;;;;;;;7.50;5.70;;;;;;;37.04;25.55;99551.63;4276606;33;33690;-90
2021/08/15 13:36:08;;;;;;;7.07;5.55;;;;;;;37.26;25.08;99550.84;4289727;33;34296;-90
2021/08/15 13:38:35;;;;;;;9.68;5.90;;;;;;;37.41;24.64;99548.28;4264676;33;34231;-91
2021/08/15 13:41:03;;;;;;;8.43;6.20;;;;;;;37.55;25.38;99544.81;4276345;33;34047;-92
2021/08/15 13:43:32;;;;;;;9.75;5.95;;;;;;;37.37;25.92;99536.94;4288666;33;34923;-92
2021/08/15 13:46:01;;;;;;;9.15;6.18;;;;;;;37.17;26.01;99541.06;4276462;33;32633;-90
2021/08/15 13:48:28;;;;;;;7.70;6.37;;;;;;;36.51;26.79;99557.66;4288437;33;33833;-90
2021/08/15 13:50:56;;;;;;;9.30;6.35;;;;;;;36.96;26.35;99548.94;4276460;33;34699;-90
2021/08/15 13:53:24;;;;;;;8.85;6.03;;;;;;;37.16;26.42;99555.62;4276234;33;34171;-91
2021/08/15 13:55:51;;;;;;;8.80;5.93;;;;;;;37.19;26.70;99549.88;4264571;33;33710;-89
2021/08/15 13:58:19;;;;;;;8.32;5.78;;;;;;;37.21;27.83;99547.81;4264450;33;33397;-89
2021/08/15 14:00:50;;;;;;;8.80;5.68;;;;;;;37.17;25.48;99551.91;4276287;33;34614;-89
2021/08/15 14:03:19;;;;;;;7.87;5.43;;;;;;;37.19;26.04;99548.00;4276969;33;34672;-91
2021/08/15 14:05:47;;;;;;;11.68;6.60;;;;;;;37.01;26.30;99543.84;4276784;33;33505;-89
2021/08/15 14:08:14;;;;;;;9.80;6.45;;;;;;;37.20;25.34;99546.16;4288308;33;34706;-91
2021/08/15 14:10:50;;;;;;;6.93;5.57;;;;;;;37.11;26.44;99547.22;4277493;33;35570;-91
2021/08/15 14:13:19;;;;;;;7.47;6.05;;;;;;;37.26;25.04;99540.84;4288358;33;34122;-91
2021/08/15 14:15:48;;;;;;;9.38;5.80;;;;;;;37.26;26.06;99542.72;4265022;33;33490;-89
2021/08/15 14:18:16;;;;;;;10.50;6.40;;;;;;;37.11;27.77;99547.22;4264499;33;34227;-89
2021/08/15 14:20:45;;;;;;;8.35;5.72;;;;;;;36.93;28.13;99547.44;4288363;33;34802;-90
2021/08/15 14:23:13;;;;;;;7.45;6.22;;;;;;;36.57;28.26;99538.84;4276573;33;33402;-92
2021/08/15 14:25:40;;;;;;;8.82;6.10;;;;;;;36.85;27.04;99527.63;4265002;33;33451;-90
2021/08/15 14:28:08;;;;;;;8.07;6.32;;;;;;;36.73;26.95;99537.13;4264532;33;34202;-91
2021/08/15 14:30:35;;;;;;;8.88;6.30;;;;;;;36.77;27.79;99533.03;4276213;33;35479;-93
2021/08/15 14:33:03;;;;;;;10.20;6.45;;;;;;;36.80;27.74;99541.66;4264570;33;33481;-90
2021/08/15 14:35:31;;;;;;;9.00;6.10;;;;;;;36.66;27.00;99543.22;4264512;33;33051;-89
2021/08/15 14:37:58;;;;;;;8.90;5.97;;;;;;;36.71;27.25;99541.84;4276363;33;33637;-89
2021/08/15 14:40:27;;;;;;;8.63;6.40;;;;;;;36.46;27.73;99546.47;4276491;33;34624;-89
2021/08/15 14:42:55;;;;;;;6.72;5.90;;;;;;;36.20;29.03;99540.38;4288025;33;33629;-89
2021/08/15 14:45:22;;;;;;;6.43;5.65;;;;;;;36.15;27.98;99542.72;4276285;33;33726;-88
2021/08/15 14:47:50;;;;;;;8.77;6.60;;;;;;;36.05;28.59;99540.19;4287932;33;34042;-90
2021/08/15 14:50:18;;;;;;;7.72;6.18;;;;;;;36.18;28.42;99529.72;4276033;33;33974;-88
2021/08/15 14:52:45;;;;;;;8.02;6.35;;;;;;;36.19;28.77;99534.09;4287525;33;33660;-90
2021/08/15 14:55:13;;;;;;;7.93;6.07;;;;;;;36.16;28.63;99529.00;4289224;33;34483;-89
2021/08/15 14:57:41;;;;;;;7.80;5.80;;;;;;;36.19;28.12;99534.09;4264233;33;34178;-89
2021/08/15 15:00:09;;;;;;;7.37;6.10;;;;;;;36.20;29.23;99522.28;4276080;33;34579;-88
2021/08/15 15:02:37;;;;;;;8.20;6.22;;;;;;;36.25;28.72;99517.19;4276154;33;35543;-89
2021/08/15 15:05:05;;;;;;;9.65;6.85;;;;;;;36.26;28.98;99513.44;4276082;33;33418;-89
2021/08/15 15:07:32;;;;;;;7.72;6.78;;;;;;;36.24;28.44;99515.50;4276024;33;34319;-90
2021/08/15 15:10:05;;;;;;;10.77;6.62;;;;;;;36.28;29.25;99499.75;4287733;33;35532;-91
2021/08/15 15:12:36;;;;;;;9.75;6.47;;;;;;;36.25;29.07;99506.37;4275952;33;34262;-88
2021/08/15 15:15:04;;;;;;;;;;;;;;;36.23;28.65;99512.97;4264976;33;32840;-86
2021/08/15 15:17:33;;;;;;;9.43;6.05;;;;;;;36.37;28.45;99498.72;4276110;33;33505;-89
2021/08/15 15:20:00;;;;;;;9.35;6.20;;;;;;;36.31;28.18;99505.66;4276230;33;34844;-89
2021/08/15 15:22:29;;;;;;;9.68;6.18;;;;;;;36.23;28.75;99502.94;4287991;33;33779;-90
2021/08/15 15:24:56;;;;;;;11.07;6.43;;;;;;;36.08;29.78;99493.00;4264502;33;32854;-89
2021/08/15 15:27:24;;;;;;;11.75;7.35;;;;;;;36.23;28.95;99492.13;4288857;33;34114;-94
2021/08/15 15:29:52;;;;;;;9.13;5.95;;;;;;;36.18;28.89;99489.09;4275516;33;34325;-89
2021/08/15 15:32:19;;;;;;;8.65;5.95;;;;;;;36.06;29.12;99493.16;4275359;33;33490;-89
2021/08/15 15:34:47;;;;;;;10.35;6.32;;;;;;;36.03;29.57;99484.53;4275533;33;33533;-89
2021/08/15 15:37:15;;;;;;;11.30;5.68;;;;;;;35.99;29.35;99473.22;4274895;33;34238;-90
2021/08/15 15:39:43;;;;;;;7.82;5.57;;;;;;;36.03;29.26;99482.69;4287599;33;35027;-89
2021/08/15 15:42:11;;;;;;;10.23;6.40;;;;;;;36.09;28.90;99473.84;4275615;33;34480;-89
2021/08/15 15:44:39;;;;;;;9.75;6.20;;;;;;;36.05;29.58;99477.94;4287213;33;33829;-89
2021/08/15 15:47:07;;;;;;;11.30;5.95;;;;;;;36.09;28.40;99468.44;4287316;33;33446;-90
2021/08/15 15:49:34;;;;;;;10.15;6.35;;;;;;;35.88;28.42;99468.09;4275704;33;34754;-89
2021/08/15 15:52:02;;;;;;;10.18;5.75;;;;;;;35.90;28.15;99460.63;4286935;33;34251;-89
2021/08/15 15:54:37;;;;;;;11.18;6.12;;;;;;;35.82;28.10;99460.66;4286400;33;32894;-90
2021/08/15 15:57:05;;;;;;;15.13;6.03;;;;;;;35.96;27.88;99462.69;4263788;33;34210;-92
2021/08/15 15:59:33;;;;;;;10.27;5.95;;;;;;;35.89;29.00;99450.84;4275904;33;34291;-85
2021/08/15 16:02:01;;;;;;;7.43;6.22;;;;;;;35.88;28.90;99455.41;4275996;33;34168;-89
2021/08/15 16:04:29;;;;;;;8.80;5.93;;;;;;;35.68;29.59;99459.47;4263789;33;32787;-89
2021/08/15 16:06:56;;;;;;;11.02;6.15;;;;;;;35.62;28.20;99462.84;4275121;33;33975;-89
2021/08/15 16:09:24;;;;;;;8.80;5.87;;;;;;;35.60;28.17;99450.50;4263427;33;33919;-88
2021/08/15 16:11:52;;;;;;;7.40;5.60;;;;;;;35.59;29.55;99455.03;4286814;33;34867;-87
2021/08/15 16:14:19;;;;;;;8.68;5.65;;;;;;;35.72;29.33;99457.25;4286944;33;33228;-87
2021/08/15 16:16:46;;;;;;;11.70;6.37;;;;;;;35.76;28.90;99455.91;4275352;33;33886;-87
2021/08/15 16:19:14;;;;;;;8.75;6.53;;;;;;;35.77;28.78;99444.94;4286823;33;34681;-86
2021/08/15 16:21:42;;;;;;;7.97;5.85;;;;;;;35.56;29.40;99450.00;4263376;33;34472;-87
2021/08/15 16:24:10;;;;;;;8.32;6.20;;;;;;;35.55;28.88;99442.03;4263139;33;33020;-84
2021/08/15 16:26:37;;;;;;;8.73;6.97;;;;;;;35.49;29.29;99442.69;4287975;33;33662;-87
2021/08/15 16:29:05;;;;;;;10.45;6.45;;;;;;;35.50;29.36;99447.06;4275063;33;34743;-87
2021/08/15 16:31:33;;;;;;;12.65;6.20;;;;;;;35.40;29.91;99438.28;4286634;33;34565;-91
2021/08/15 16:34:00;;;;;;;12.40;7.30;;;;;;;35.33;30.28;99443.47;4263154;33;33769;-88
2021/08/15 16:36:28;;;;;;;10.07;7.43;;;;;;;35.32;30.46;99439.09;4274867;33;33974;-88
2021/08/15 16:38:55;;;;;;;10.15;7.15;;;;;;;35.23;30.36;99440.91;4287960;33;34947;-88
2021/08/15 16:41:23;;;;;;;10.35;6.60;;;;;;;35.19;31.14;99442.28;4287707;33;34962;-88
2021/08/15 16:43:51;;;;;;;11.85;7.30;;;;;;;35.18;31.05;99437.87;4286533;33;33550;-88
2021/08/15 16:46:19;;;;;;;10.07;7.20;;;;;;;35.10;31.68;99443.25;4286591;33;34300;-88
2021/08/15 16:48:47;;;;;;;7.72;6.40;;;;;;;35.10;32.28;99437.84;4287616;33;34027;-87
2021/08/15 16:51:14;;;;;;;10.00;7.05;;;;;;;35.00;32.90;99431.72;4265234;33;34293;-87
2021/08/15 16:53:42;;;;;;;11.02;6.53;;;;;;;35.00;33.16;99436.25;4276289;33;33886;-87
2021/08/15 16:56:09;;;;;;;9.35;6.60;;;;;;;34.94;33.58;99442.34;4288825;33;34010;-87
2021/08/15 16:58:37;;;;;;;9.88;6.87;;;;;;;34.85;33.84;99444.13;4288634;33;34696;-87
2021/08/15 17:01:06;;;;;;;8.00;6.80;;;;;;;34.80;34.25;99446.50;4264896;33;33818;-87
2021/08/15 17:03:34;;;;;;;11.52;7.60;;;;;;;34.73;35.58;99442.75;4266261;33;33180;-91
2021/08/15 17:06:02;;;;;;;11.55;6.87;;;;;;;34.68;35.29;99439.69;4265315;33;33634;-88
2021/08/15 17:08:31;;;;;;;11.57;7.28;;;;;;;34.52;35.92;99436.84;4288548;33;34014;-88
2021/08/15 17:10:59;;;;;;;10.30;7.53;;;;;;;34.45;35.94;99436.66;4276757;33;33644;-88
2021/08/15 17:13:26;;;;;;;10.07;7.12;;;;;;;34.32;36.19;99436.25;4264775;33;32841;-89
2021/08/15 17:15:54;;;;;;;13.23;7.12;;;;;;;34.20;36.79;99429.44;4288469;33;33446;-89
2021/08/15 17:18:23;;;;;;;10.80;8.10;;;;;;;34.13;37.53;99427.53;4288458;33;35008;-88
2021/08/15 17:20:50;;;;;;;10.55;7.75;;;;;;;34.10;38.17;99422.44;4276335;33;33434;-88
2021/08/15 17:23:18;;;;;;;9.13;6.90;;;;;;;33.81;38.63;99426.25;4276561;33;34534;-89
2021/08/15 17:25:48;;;;;;;11.80;7.82;;;;;;;33.86;36.84;99423.06;4277124;33;34010;-95
2021/08/15 17:28:17;;;;;;;11.40;8.80;;;;;;;33.73;37.87;99423.50;4276675;33;34638;-94
2021/08/15 17:30:46;;;;;;;12.05;8.30;;;;;;;33.70;38.20;99418.41;4278783;33;34480;-94
2021/08/15 17:33:18;;;;;;;11.25;8.75;;;;;;;33.60;38.27;99427.56;4279218;33;33672;-96
2021/08/15 17:35:47;;;;;;;8.75;7.60;;;;;;;33.51;38.86;99423.06;4278907;33;33056;-91
2021/08/15 17:38:14;;;;;;;10.93;7.37;;;;;;;33.46;38.67;99420.84;4266872;33;35706;-94
2021/08/15 17:40:42;;;;;;;10.80;7.85;;;;;;;33.38;37.85;99435.09;4278320;33;34974;-91
2021/08/15 17:43:11;;;;;;;11.12;8.20;;;;;;;33.34;38.03;99432.84;4277055;33;34259;-89
2021/08/15 17:45:40;;;;;;;14.93;7.70;;;;;;;33.28;39.03;99430.78;4264635;33;33764;-94
2021/08/15 17:48:09;;;;;;;14.43;7.62;;;;;;;33.11;39.91;99434.31;4278165;33;35623;-92
2021/08/15 17:50:41;;;;;;;13.13;7.72;;;;;;;33.06;39.84;99436.59;4265880;33;33553;-93
2021/08/15 17:53:09;;;;;;;14.30;7.62;;;;;;;32.97;40.28;99437.47;4253828;33;32841;-89
2021/08/15 17:55:41;;;;;;;13.07;7.55;;;;;;;32.82;41.07;99444.34;4265770;33;34570;-91
2021/08/15 17:58:09;;;;;;;14.63;7.28;;;;;;;32.78;40.81;99449.22;4277372;33;33713;-91
2021/08/15 18:00:36;;;;;;;13.32;7.37;;;;;;;32.67;41.12;99444.00;4277578;33;33659;-89
2021/08/15 18:03:04;;;;;;;12.30;7.03;;;;;;;32.64;41.14;99450.53;4266156;33;32941;-89
2021/08/15 18:05:32;;;;;;;15.32;7.70;;;;;;;32.52;41.35;99454.38;4254443;33;33931;-89
2021/08/15 18:08:00;;;;;;;10.15;7.75;;;;;;;32.42;41.49;99466.16;4265779;33;34931;-87
2021/08/15 18:10:27;;;;;;;10.10;7.28;;;;;;;32.40;41.37;99465.47;4277563;33;34156;-89
2021/08/15 18:12:55;;;;;;;11.95;7.68;;;;;;;32.32;41.71;99470.72;4273580;33;33135;-91
2021/08/15 18:15:29;;;;;;;8.30;7.37;;;;;;;32.27;42.14;99470.31;4262993;33;34740;-91
2021/08/15 18:18:24;;;;;;;14.80;8.02;;;;;;;32.18;42.43;99466.66;4262957;33;34185;-93
2021/08/15 18:20:57;;;;;;;12.23;7.82;;;;;;;32.10;42.72;99466.53;4263048;33;33918;-90
2021/08/15 18:23:55;;;;;;;15.55;8.75;;;;;;;32.07;43.00;99473.03;4263147;33;33972;-91
2021/08/15 18:26:44;;;;;;;10.93;8.25;;;;;;;31.89;43.64;99474.72;4264435;33;34900;-91
2021/08/15 18:29:52;;;;;;;11.10;7.50;;;;;;;31.80;43.45;99478.28;4265394;33;34558;-94
2021/08/15 18:32:27;;;;;;;11.55;7.20;;;;;;;31.71;43.61;99492.56;4270032;33;33794;-94
2021/08/15 18:35:03;;;;;;;11.48;8.23;;;;;;;31.68;43.51;99497.37;4253119;33;33064;-94
2021/08/15 18:37:42;;;;;;;14.32;7.87;;;;;;;31.61;43.67;99499.78;4266544;33;33979;-93
2021/08/15 18:40:19;;;;;;;14.63;7.97;;;;;;;31.56;43.79;99493.97;4265602;33;34262;-91
2021/08/15 18:43:19;;;;;;;12.18;6.95;;;;;;;31.63;43.74;99494.25;4254182;33;34859;-93
2021/08/15 18:45:50;;;;;;;12.40;7.68;;;;;;;31.51;44.12;99490.00;4264996;33;34406;-89
2021/08/15 18:48:18;;;;;;;20.35;7.95;;;;;;;31.39;44.33;99491.94;4263221;33;34875;-91
2021/08/15 18:50:58;;;;;;;15.07;8.85;;;;;;;31.36;44.18;99493.06;4266424;33;34369;-90
2021/08/15 18:53:30;;;;;;;12.32;7.35;;;;;;;31.41;44.33;99501.56;4265492;33;33888;-93
2021/08/15 18:56:18;;;;;;;14.10;7.82;;;;;;;31.27;45.01;99498.41;4255048;33;34421;-91
2021/08/15 18:59:07;;;;;;;10.32;7.70;;;;;;;31.19;45.15;99506.34;4254721;33;34799;-92
2021/08/15 19:02:05;;;;;;;11.88;7.87;;;;;;;31.15;45.12;99494.12;4267643;33;36008;-93
2021/08/15 19:05:12;;;;;;;10.05;7.45;;;;;;;31.08;45.36;99504.59;4266877;33;35379;-92
2021/08/15 19:07:55;;;;;;;10.90;8.52;;;;;;;31.07;45.68;99494.81;4262747;33;34363;-92
2021/08/15 19:10:47;;;;;;;15.20;8.45;;;;;;;30.90;46.14;99484.75;4257068;33;33375;-91
2021/08/15 19:13:57;;;;;;;11.82;8.27;;;;;;;30.79;46.41;99479.44;4263297;33;33918;-89
2021/08/15 19:19:55;;;;;;;13.02;7.97;;;;;;;30.87;46.33;99474.25;4261238;33;33154;-92
2021/08/15 19:22:35;;;;;;;13.05;9.02;;;;;;;30.78;46.78;99475.06;4264456;33;34649;-93
2021/08/15 19:25:13;;;;;;;11.80;9.45;;;;;;;30.57;47.06;99466.22;4263731;33;35971;-94
2021/08/15 19:28:15;;;;;;;11.88;8.35;;;;;;;30.49;47.62;99466.87;4256152;33;33868;-94
2021/08/15 19:34:52;;;;;;;15.30;8.45;;;;;;;30.27;47.86;99483.09;4280839;33;34392;-94
2021/08/15 19:37:27;;;;;;;10.18;7.85;;;;;;;30.29;47.77;99488.31;4263380;33;35104;-92
2021/08/15 19:40:07;;;;;;;;;;;;;;;30.16;47.22;99488.53;4264449;33;34457;-92
2021/08/15 19:43:04;;;;;;;12.93;7.97;;;;;;;30.34;46.39;99486.97;4259770;33;33922;-93
2021/08/15 19:46:19;;;;;;;12.00;7.57;;;;;;;30.12;46.83;99485.25;4266996;33;35001;-94
2021/08/15 19:49:55;;;;;;;11.12;8.57;;;;;;;30.21;46.88;99474.72;4261555;33;34914;-94
2021/08/15 19:53:22;;;;;;;13.95;8.52;;;;;;;30.06;47.35;99466.16;4243411;33;35016;-90
2021/08/15 19:56:00;;;;;;;12.43;8.45;;;;;;;30.02;47.67;99459.37;4263350;33;34097;-89
2021/08/15 19:58:38;;;;;;;12.48;8.35;;;;;;;30.19;47.14;99452.56;4264906;33;34347;-91
2021/08/15 20:01:27;;;;;;;9.32;8.23;;;;;;;30.11;47.22;99448.69;4277653;33;34815;-88
2021/08/15 20:04:20;;;;;;;9.05;7.65;;;;;;;30.17;47.30;99457.22;4267160;33;35481;-90
2021/08/15 20:06:57;;;;;;;10.98;7.53;;;;;;;30.14;47.58;99464.50;4268436;33;35046;-88
2021/08/15 20:10:05;;;;;;;13.02;7.57;;;;;;;29.96;47.94;99460.72;4272286;33;34608;-88
2021/08/15 20:12:50;;;;;;;11.70;9.00;;;;;;;30.08;47.55;99458.81;4266098;33;34650;-90
2021/08/15 20:15:20;;;;;;;15.23;7.95;;;;;;;29.31;50.52;99559.13;4250514;33;33579;-89
2021/08/15 20:20:30;;;;;;;16.77;5.53;;;;;;;29.42;43.39;99553.75;4273551;33;34394;-88
2021/08/15 20:23:15;;;;;;;;;;;;;;;;;;;;;
2021/08/15 20:25:45;;;;;;;20.00;7.07;;;;;;;28.66;50.39;99565.19;4276506;33;34924;-89
2021/08/15 20:28:14;;;;;;;12.60;5.60;;;;;;;28.19;52.76;99547.38;4264183;33;33026;-86
2021/08/15 20:30:41;;;;;;;13.38;5.95;;;;;;;27.29;51.18;99555.00;4263850;33;34271;-86
2021/08/15 20:33:09;;;;;;;11.85;5.45;;;;;;;27.52;53.85;99605.00;4263999;33;34623;-85
2021/08/15 20:35:38;;;;;;;12.82;5.97;;;;;;;27.57;53.49;99614.50;4263737;33;34900;-86
2021/08/15 20:38:07;;;;;;;9.93;5.55;;;;;;;27.33;54.87;99617.09;4263573;33;33567;-84
2021/08/15 20:40:35;;;;;;;9.88;6.03;;;;;;;27.02;55.98;99623.75;4274994;33;34134;-85
2021/08/15 20:43:03;;;;;;;8.02;5.35;;;;;;;27.04;56.76;99623.62;4263598;33;35465;-84
2021/08/15 20:45:31;;;;;;;14.70;6.20;;;;;;;26.86;57.18;99601.75;4276242;33;34143;-85
2021/08/15 20:48:05;;;;;;;11.82;6.12;;;;;;;26.82;57.91;99584.25;4275357;33;33401;-85
2021/08/15 20:50:33;;;;;;;;;;;;;;;26.92;58.36;99566.63;4276566;33;34871;-86
2021/08/15 20:53:00;;;;;;;26.92;6.90;;;;;;;26.86;58.23;99556.41;4262889;33;35299;-85
2021/08/15 20:55:30;;;;;;;17.60;6.22;;;;;;;26.76;57.46;99534.00;4263129;33;34897;-85
2021/08/15 20:58:00;;;;;;;9.68;6.40;;;;;;;26.60;58.35;99506.66;4263226;33;33721;-84
2021/08/15 21:00:44;;;;;;;17.02;7.05;;;;;;;26.19;59.14;99502.38;4264565;33;34710;-84
2021/08/15 21:03:13;;;;;;;14.20;7.70;;;;;;;26.36;59.77;99514.56;4272580;33;35560;-84
2021/08/15 21:05:44;;;;;;;14.07;8.10;;;;;;;26.10;61.18;99528.78;4272599;33;34986;-84
2021/08/15 21:08:18;;;;;;;15.15;7.55;;;;;;;25.91;62.53;99544.31;4274701;33;33945;-84
2021/08/15 21:10:46;;;;;;;8.95;8.02;;;;;;;25.81;63.28;99544.06;4273714;33;34640;-85
2021/08/15 21:13:15;;;;;;;14.73;8.25;;;;;;;26.15;62.68;99530.19;4260753;33;33949;-88
2021/08/15 21:15:43;;;;;;;16.45;7.72;;;;;;;26.25;62.88;99500.22;4260456;33;33980;-85
2021/08/15 21:18:12;;;;;;;12.75;7.78;;;;;;;26.23;62.63;99480.84;4272161;33;33250;-84
2021/08/15 21:20:39;;;;;;;10.95;7.57;;;;;;;26.27;62.20;99469.03;4250219;33;34229;-85
2021/08/15 21:23:07;;;;;;;13.62;7.45;;;;;;;26.34;62.50;99436.47;4263573;33;34846;-88
2021/08/15 21:25:37;;;;;;;15.30;7.93;;;;;;;26.40;61.84;99408.53;4263245;33;34927;-86
2021/08/15 21:28:04;;;;;;;10.65;7.45;;;;;;;26.61;61.89;99433.66;4276095;33;33945;-86
2021/08/15 21:30:32;;;;;;;14.43;8.38;;;;;;;26.65;62.01;99457.34;4276655;33;34061;-85
2021/08/15 21:33:00;;;;;;;10.93;7.68;;;;;;;26.40;62.95;99477.84;4276395;33;35330;-85
2021/08/15 21:35:27;;;;;;;14.13;8.45;;;;;;;26.45;62.96;99479.25;4275954;33;34301;-84
2021/08/15 21:37:55;;;;;;;11.10;7.75;;;;;;;26.39;62.86;99485.00;4275321;33;33564;-85
2021/08/15 21:40:22;;;;;;;13.38;8.43;;;;;;;26.33;63.01;99476.56;4276245;33;34376;-84
2021/08/15 21:42:50;;;;;;;12.50;9.10;;;;;;;26.31;63.16;99478.50;4275215;33;35451;-84
2021/08/15 21:45:17;;;;;;;10.95;8.10;;;;;;;26.31;63.18;99476.69;4275375;33;34638;-85
2021/08/15 21:47:45;;;;;;;11.25;8.57;;;;;;;26.51;62.83;99476.13;4275302;33;33777;-85
2021/08/15 21:50:13;;;;;;;13.15;8.98;;;;;;;26.60;62.80;99498.66;4275243;33;33693;-85
2021/08/15 21:52:40;;;;;;;14.20;9.20;;;;;;;26.39;63.70;99508.13;4275939;33;35375;-86
2021/08/15 21:55:08;;;;;;;12.02;9.57;;;;;;;26.48;63.48;99516.34;4275289;33;33920;-84
2021/08/15 21:57:36;;;;;;;12.20;9.40;;;;;;;26.60;63.49;99520.81;4275245;33;33633;-84
2021/08/15 22:00:06;;;;;;;12.57;9.70;;;;;;;26.38;64.23;99525.09;4263336;33;33334;-86
2021/08/15 22:02:38;;;;;;;16.73;9.82;;;;;;;26.40;64.58;99496.53;4263839;33;34832;-87
2021/08/15 22:05:06;;;;;;;16.85;10.35;;;;;;;26.38;63.98;99509.97;4263236;33;34083;-86
2021/08/15 22:07:34;;;;;;;16.45;9.40;;;;;;;26.39;64.58;99545.47;4275026;33;33622;-85
2021/08/15 22:10:04;;;;;;;14.93;8.88;;;;;;;26.52;63.92;99559.66;4263349;33;34102;-85
2021/08/15 22:12:32;;;;;;;16.23;7.53;;;;;;;26.62;63.46;99606.97;4263223;33;34652;-88
2021/08/15 22:14:59;;;;;;;12.15;6.97;;;;;;;26.53;60.30;99634.22;4263039;33;33484;-86
2021/08/15 22:17:27;;;;;;;8.27;5.43;;;;;;;26.27;61.30;99634.31;4263173;33;33539;-88
2021/08/15 22:19:55;;;;;;;9.40;5.68;;;;;;;26.32;58.02;99629.50;4274660;33;33918;-88
2021/08/15 22:22:22;;;;;;;9.02;5.93;;;;;;;26.11;59.84;99635.31;4262485;33;34703;-89
2021/08/15 22:24:50;;;;;;;9.27;5.47;;;;;;;26.05;59.18;99622.34;4263310;33;33495;-88
2021/08/15 22:27:18;;;;;;;9.82;5.35;;;;;;;25.88;59.55;99619.97;4262374;33;33261;-86
2021/08/15 22:29:45;;;;;;;9.23;4.95;;;;;;;25.95;59.60;99577.78;4262756;33;33912;-88
2021/08/15 22:32:13;;;;;;;8.15;4.90;;;;;;;25.75;59.34;99531.13;4274145;33;34909;-87
2021/08/15 22:34:43;;;;;;;13.95;5.90;;;;;;;25.66;59.32;99507.78;4273643;33;34339;-86
2021/08/15 22:37:10;;;;;;;7.87;5.22;;;;;;;25.63;59.68;99486.66;4275618;33;33942;-86
2021/08/15 22:39:38;;;;;;;11.38;6.03;;;;;;;25.78;60.70;99512.28;4262623;33;34748;-85
2021/08/15 22:42:06;;;;;;;8.43;5.80;;;;;;;25.66;61.41;99529.09;4274552;33;34945;-86
2021/08/15 22:44:33;;;;;;;9.10;5.70;;;;;;;25.43;61.56;99554.53;4262515;33;33593;-85
2021/08/15 22:47:01;;;;;;;11.23;5.90;;;;;;;25.47;62.37;99579.16;4275606;33;33517;-83
2021/08/15 22:49:29;;;;;;;7.90;5.05;;;;;;;25.61;62.86;99619.06;4274977;33;34034;-83
2021/08/15 22:51:56;;;;;;;7.75;4.32;;;;;;;25.52;60.91;99583.25;4275136;33;35478;-83
2021/08/15 22:54:24;;;;;;;7.60;5.05;;;;;;;25.52;60.13;99575.25;4273741;33;34558;-85
2021/08/15 22:56:51;;;;;;;8.93;5.57;;;;;;;25.35;59.62;99567.47;4275229;33;33574;-83
2021/08/15 22:59:19;;;;;;;6.62;4.37;;;;;;;25.35;59.60;99580.78;4273850;33;34044;-84
2021/08/15 23:01:46;;;;;;;5.80;4.12;;;;;;;25.19;60.13;99565.87;4274385;33;34701;-84
2021/08/15 23:04:14;;;;;;;7.45;4.32;;;;;;;25.25;59.55;99576.13;4275043;33;35207;-84
2021/08/15 23:06:42;;;;;;;8.02;4.50;;;;;;;25.17;60.02;99573.97;4275226;33;33441;-84
2021/08/15 23:09:09;;;;;;;8.60;4.03;;;;;;;25.04;60.95;99564.19;4273990;33;33314;-84
2021/08/15 23:11:37;;;;;;;6.03;3.97;;;;;;;25.01;60.92;99559.06;4274651;33;35442;-85
2021/08/15 23:14:06;;;;;;;4.65;3.75;;;;;;;24.89;60.24;99545.56;4262256;33;35007;-87
2021/08/15 23:16:33;;;;;;;7.35;4.50;;;;;;;25.09;60.29;99548.78;4274494;33;33416;-85
2021/08/15 23:19:01;;;;;;;7.18;4.55;;;;;;;24.95;60.40;99551.47;4274698;33;34440;-85
2021/08/15 23:21:29;;;;;;;5.68;3.65;;;;;;;24.95;61.84;99554.13;4262897;33;34628;-85
2021/08/15 23:23:56;;;;;;;7.43;4.37;;;;;;;25.15;60.93;99548.41;4275635;33;34142;-85
2021/08/15 23:26:24;;;;;;;10.23;4.80;;;;;;;25.00;62.28;99568.00;4274889;33;33188;-85
2021/08/15 23:28:54;;;;;;;6.60;4.18;;;;;;;25.13;62.28;99572.44;4262667;33;33920;-85
2021/08/15 23:31:22;;;;;;;7.15;4.65;;;;;;;25.15;61.67;99585.66;4274607;33;35890;-84
2021/08/15 23:33:50;;;;;;;5.62;4.12;;;;;;;25.28;59.47;99576.78;4262804;33;33941;-84
2021/08/15 23:36:17;;;;;;;5.65;3.65;;;;;;;25.03;61.12;99575.78;4274522;33;33450;-84
2021/08/15 23:38:45;;;;;;;4.93;3.70;;;;;;;25.08;59.74;99563.88;4274404;33;34828;-83
2021/08/15 23:41:13;;;;;;;6.50;3.90;;;;;;;25.10;60.48;99575.31;4275106;33;35548;-84
2021/08/15 23:43:40;;;;;;;6.95;4.00;;;;;;;25.05;61.52;99573.87;4262783;33;34221;-84
2021/08/15 23:46:08;;;;;;;8.55;3.92;;;;;;;24.92;62.19;99583.56;4262257;33;32861;-84
2021/08/15 23:48:37;;;;;;;7.35;4.40;;;;;;;24.94;62.20;99581.69;4262651;33;33849;-85
2021/08/15 23:51:09;;;;;;;10.43;5.00;;;;;;;24.77;63.00;99580.06;4275306;33;34703;-84
2021/08/15 23:53:36;;;;;;;5.40;4.07;;;;;;;24.89;63.09;99574.81;4275044;33;35112;-84
2021/08/15 23:56:07;;;;;;;6.12;4.25;;;;;;;24.96;62.75;99571.81;4274053;33;33480;-85
2021/08/15 23:58:35;;;;;;;5.00;4.18;;;;;;;24.89;62.90;99572.16;4252584;33;33936;-86
